sensor_id;sensor_type;location;lat;lon;timestamp;pressure;altitude;pressure_sealevel;temperature;humidity
59417;BME280;45222;52.458;20.914;2023-06-10T00:02:29;100705.88;;;18.26;45.41
59417;BME280;45222;52.458;20.914;2023-06-10T00:06:16;100707.91;;;18.15;45.81
59417;BME280;45222;52.458;20.914;2023-06-10T00:10:02;100709.83;;;18.06;45.91
59417;BME280;45222;52.458;20.914;2023-06-10T00:13:50;100712.61;;;17.97;46.33
59417;BME280;45222;52.458;20.914;2023-06-10T00:17:36;100707.45;;;17.90;46.71
59417;BME280;45222;52.458;20.914;2023-06-10T00:21:23;100707.16;;;17.81;46.70
59417;BME280;45222;52.458;20.914;2023-06-10T00:25:11;100707.67;;;17.74;47.08
59417;BME280;45222;52.458;20.914;2023-06-10T00:28:57;100708.74;;;17.67;47.45
59417;BME280;45222;52.458;20.914;2023-06-10T00:32:43;100707.46;;;17.60;47.74
59417;BME280;45222;52.458;20.914;2023-06-10T00:36:29;100703.27;;;17.53;47.77
59417;BME280;45222;52.458;20.914;2023-06-10T00:40:16;100703.96;;;17.46;48.47
59417;BME280;45222;52.458;20.914;2023-06-10T00:44:02;100704.93;;;17.40;48.89
59417;BME280;45222;52.458;20.914;2023-06-10T00:47:48;100705.20;;;17.36;49.14
59417;BME280;45222;52.458;20.914;2023-06-10T00:51:34;100700.71;;;17.34;49.31
59417;BME280;45222;52.458;20.914;2023-06-10T00:55:21;100703.39;;;17.31;49.88
59417;BME280;45222;52.458;20.914;2023-06-10T00:59:08;100708.04;;;17.31;50.06
59417;BME280;45222;52.458;20.914;2023-06-10T01:02:54;100710.96;;;17.31;50.38
59417;BME280;45222;52.458;20.914;2023-06-10T01:06:46;100709.04;;;17.33;50.36
59417;BME280;45222;52.458;20.914;2023-06-10T01:10:35;100710.88;;;17.32;50.87
59417;BME280;45222;52.458;20.914;2023-06-10T01:14:23;100713.11;;;17.31;50.90
59417;BME280;45222;52.458;20.914;2023-06-10T01:18:09;100717.92;;;17.32;51.26
59417;BME280;45222;52.458;20.914;2023-06-10T01:21:59;100716.10;;;17.29;51.66
59417;BME280;45222;52.458;20.914;2023-06-10T01:25:47;100716.80;;;17.25;51.97
59417;BME280;45222;52.458;20.914;2023-06-10T01:29:36;100718.67;;;17.18;52.13
59417;BME280;45222;52.458;20.914;2023-06-10T01:33:25;100719.94;;;17.13;52.86
59417;BME280;45222;52.458;20.914;2023-06-10T01:37:13;100727.41;;;17.09;52.94
59417;BME280;45222;52.458;20.914;2023-06-10T01:41:00;100725.63;;;17.06;53.55
59417;BME280;45222;52.458;20.914;2023-06-10T01:44:46;100727.47;;;17.03;53.67
59417;BME280;45222;52.458;20.914;2023-06-10T01:48:33;100730.31;;;17.00;53.96
59417;BME280;45222;52.458;20.914;2023-06-10T01:52:19;100727.38;;;16.96;53.93
59417;BME280;45222;52.458;20.914;2023-06-10T01:56:05;100731.64;;;16.92;54.19
59417;BME280;45222;52.458;20.914;2023-06-10T01:59:52;100729.23;;;16.87;54.41
59417;BME280;45222;52.458;20.914;2023-06-10T02:03:38;100736.61;;;16.82;54.45
59417;BME280;45222;52.458;20.914;2023-06-10T02:07:24;100737.01;;;16.76;55.24
59417;BME280;45222;52.458;20.914;2023-06-10T02:11:10;100742.90;;;16.72;55.15
59417;BME280;45222;52.458;20.914;2023-06-10T02:14:56;100748.63;;;16.67;55.17
59417;BME280;45222;52.458;20.914;2023-06-10T02:18:43;100750.95;;;16.61;55.52
59417;BME280;45222;52.458;20.914;2023-06-10T02:22:31;100748.97;;;16.56;55.86
59417;BME280;45222;52.458;20.914;2023-06-10T02:26:17;100751.39;;;16.52;56.36
59417;BME280;45222;52.458;20.914;2023-06-10T02:30:03;100754.94;;;16.47;56.17
59417;BME280;45222;52.458;20.914;2023-06-10T02:33:50;100754.28;;;16.44;56.59
59417;BME280;45222;52.458;20.914;2023-06-10T02:37:36;100762.45;;;16.40;56.85
59417;BME280;45222;52.458;20.914;2023-06-10T02:41:22;100759.41;;;16.36;56.85
59417;BME280;45222;52.458;20.914;2023-06-10T02:45:10;100760.11;;;16.34;56.74
59417;BME280;45222;52.458;20.914;2023-06-10T02:48:56;100765.08;;;16.32;56.80
59417;BME280;45222;52.458;20.914;2023-06-10T02:52:42;100768.96;;;16.31;56.72
59417;BME280;45222;52.458;20.914;2023-06-10T02:56:28;100768.56;;;16.29;57.39
59417;BME280;45222;52.458;20.914;2023-06-10T03:00:16;100775.27;;;16.28;57.83
59417;BME280;45222;52.458;20.914;2023-06-10T03:04:05;100779.06;;;16.27;57.62
59417;BME280;45222;52.458;20.914;2023-06-10T03:07:51;100781.48;;;16.29;57.63
59417;BME280;45222;52.458;20.914;2023-06-10T03:11:37;100784.23;;;16.30;57.75
59417;BME280;45222;52.458;20.914;2023-06-10T03:15:23;100785.44;;;16.31;57.98
59417;BME280;45222;52.458;20.914;2023-06-10T03:19:10;100784.79;;;16.33;57.24
59417;BME280;45222;52.458;20.914;2023-06-10T03:22:56;100791.41;;;16.36;57.80
59417;BME280;45222;52.458;20.914;2023-06-10T03:26:42;100791.52;;;16.40;57.89
59417;BME280;45222;52.458;20.914;2023-06-10T03:30:28;100793.99;;;16.43;57.91
59417;BME280;45222;52.458;20.914;2023-06-10T03:34:14;100791.34;;;16.48;57.58
59417;BME280;45222;52.458;20.914;2023-06-10T03:38:00;100795.66;;;16.54;57.87
59417;BME280;45222;52.458;20.914;2023-06-10T03:41:47;100796.50;;;16.59;57.93
59417;BME280;45222;52.458;20.914;2023-06-10T03:45:33;100798.80;;;16.65;57.82
59417;BME280;45222;52.458;20.914;2023-06-10T03:49:19;100805.48;;;16.70;57.94
59417;BME280;45222;52.458;20.914;2023-06-10T03:53:05;100812.40;;;16.74;57.75
59417;BME280;45222;52.458;20.914;2023-06-10T03:56:51;100813.99;;;16.77;57.71
59417;BME280;45222;52.458;20.914;2023-06-10T04:00:37;100809.93;;;16.81;57.70
59417;BME280;45222;52.458;20.914;2023-06-10T04:04:26;100809.44;;;16.86;57.55
59417;BME280;45222;52.458;20.914;2023-06-10T04:08:12;100815.33;;;16.92;57.68
59417;BME280;45222;52.458;20.914;2023-06-10T04:11:58;100815.71;;;17.00;57.72
59417;BME280;45222;52.458;20.914;2023-06-10T04:15:44;100812.52;;;17.10;57.26
59417;BME280;45222;52.458;20.914;2023-06-10T04:19:30;100810.52;;;17.21;57.40
59417;BME280;45222;52.458;20.914;2023-06-10T04:23:16;100810.20;;;17.33;57.20
59417;BME280;45222;52.458;20.914;2023-06-10T04:27:03;100814.91;;;17.43;57.13
59417;BME280;45222;52.458;20.914;2023-06-10T04:30:50;100815.08;;;17.51;56.79
59417;BME280;45222;52.458;20.914;2023-06-10T04:34:36;100814.30;;;17.57;56.62
59417;BME280;45222;52.458;20.914;2023-06-10T04:38:23;100820.89;;;17.68;56.32
59417;BME280;45222;52.458;20.914;2023-06-10T04:42:09;100818.33;;;17.79;56.40
59417;BME280;45222;52.458;20.914;2023-06-10T04:45:56;100815.99;;;17.89;56.33
59417;BME280;45222;52.458;20.914;2023-06-10T04:49:42;100811.39;;;17.98;56.13
59417;BME280;45222;52.458;20.914;2023-06-10T04:53:28;100817.88;;;18.05;55.55
59417;BME280;45222;52.458;20.914;2023-06-10T04:57:14;100818.29;;;18.10;55.32
59417;BME280;45222;52.458;20.914;2023-06-10T05:01:00;100818.10;;;18.12;55.13
59417;BME280;45222;52.458;20.914;2023-06-10T05:04:47;100825.30;;;18.20;54.94
59417;BME280;45222;52.458;20.914;2023-06-10T05:08:33;100828.89;;;18.32;55.15
59417;BME280;45222;52.458;20.914;2023-06-10T05:12:20;100829.40;;;18.42;54.42
59417;BME280;45222;52.458;20.914;2023-06-10T05:16:06;100833.08;;;18.54;54.63
59417;BME280;45222;52.458;20.914;2023-06-10T05:19:54;100837.98;;;18.65;54.44
59417;BME280;45222;52.458;20.914;2023-06-10T05:23:40;100838.14;;;18.72;53.90
59417;BME280;45222;52.458;20.914;2023-06-10T05:27:26;100845.48;;;18.75;53.71
59417;BME280;45222;52.458;20.914;2023-06-10T05:31:12;100841.66;;;18.79;53.80
59417;BME280;45222;52.458;20.914;2023-06-10T05:34:59;100843.02;;;18.84;53.49
59417;BME280;45222;52.458;20.914;2023-06-10T05:38:46;100841.29;;;18.96;53.49
59417;BME280;45222;52.458;20.914;2023-06-10T05:42:32;100840.91;;;19.05;53.21
59417;BME280;45222;52.458;20.914;2023-06-10T05:46:18;100842.89;;;19.15;53.25
59417;BME280;45222;52.458;20.914;2023-06-10T05:50:06;100848.90;;;19.21;53.13
59417;BME280;45222;52.458;20.914;2023-06-10T05:53:53;100848.91;;;19.28;53.08
59417;BME280;45222;52.458;20.914;2023-06-10T05:57:40;100847.63;;;19.38;52.76
59417;BME280;45222;52.458;20.914;2023-06-10T06:01:27;100848.38;;;19.49;52.30
59417;BME280;45222;52.458;20.914;2023-06-10T06:05:13;100851.14;;;19.51;52.30
59417;BME280;45222;52.458;20.914;2023-06-10T06:08:59;100852.28;;;19.48;52.26
59417;BME280;45222;52.458;20.914;2023-06-10T06:12:45;100857.88;;;19.43;52.50
59417;BME280;45222;52.458;20.914;2023-06-10T06:16:31;100863.31;;;19.22;52.61
59417;BME280;45222;52.458;20.914;2023-06-10T06:20:18;100862.10;;;19.09;53.17
59417;BME280;45222;52.458;20.914;2023-06-10T06:24:04;100859.33;;;19.08;53.24
59417;BME280;45222;52.458;20.914;2023-06-10T06:27:50;100862.80;;;19.04;53.47
59417;BME280;45222;52.458;20.914;2023-06-10T06:31:36;100860.57;;;18.98;53.64
59417;BME280;45222;52.458;20.914;2023-06-10T06:35:22;100867.20;;;18.98;53.74
59417;BME280;45222;52.458;20.914;2023-06-10T06:39:09;100866.05;;;18.99;54.04
59417;BME280;45222;52.458;20.914;2023-06-10T06:42:55;100864.73;;;19.03;54.12
59417;BME280;45222;52.458;20.914;2023-06-10T06:46:41;100865.57;;;19.06;54.60
59417;BME280;45222;52.458;20.914;2023-06-10T06:50:27;100868.39;;;19.14;54.35
59417;BME280;45222;52.458;20.914;2023-06-10T06:54:13;100869.77;;;19.22;53.76
59417;BME280;45222;52.458;20.914;2023-06-10T06:57:59;100875.23;;;19.24;53.23
59417;BME280;45222;52.458;20.914;2023-06-10T07:01:48;100876.02;;;19.25;53.32
59417;BME280;45222;52.458;20.914;2023-06-10T07:05:34;100881.23;;;19.33;52.70
59417;BME280;45222;52.458;20.914;2023-06-10T07:09:20;100884.36;;;19.41;52.59
59417;BME280;45222;52.458;20.914;2023-06-10T07:13:06;100886.38;;;19.48;52.33
59417;BME280;45222;52.458;20.914;2023-06-10T07:16:52;100888.45;;;19.53;52.06
59417;BME280;45222;52.458;20.914;2023-06-10T07:20:39;100885.59;;;19.65;52.19
59417;BME280;45222;52.458;20.914;2023-06-10T07:24:26;100893.27;;;19.77;51.77
59417;BME280;45222;52.458;20.914;2023-06-10T07:28:12;100894.39;;;19.86;51.94
59417;BME280;45222;52.458;20.914;2023-06-10T07:31:58;100897.88;;;19.97;51.54
59417;BME280;45222;52.458;20.914;2023-06-10T07:35:45;100891.98;;;20.12;51.13
59417;BME280;45222;52.458;20.914;2023-06-10T07:39:31;100893.49;;;20.31;50.86
59417;BME280;45222;52.458;20.914;2023-06-10T07:43:18;100893.36;;;20.55;50.49
59417;BME280;45222;52.458;20.914;2023-06-10T07:47:04;100898.80;;;20.72;49.61
59417;BME280;45222;52.458;20.914;2023-06-10T07:50:51;100895.32;;;20.80;49.88
59417;BME280;45222;52.458;20.914;2023-06-10T07:54:37;100903.77;;;20.82;49.21
59417;BME280;45222;52.458;20.914;2023-06-10T07:58:23;100905.42;;;20.89;49.27
59417;BME280;45222;52.458;20.914;2023-06-10T08:02:09;100907.98;;;21.04;49.10
59417;BME280;45222;52.458;20.914;2023-06-10T08:05:55;100913.23;;;21.21;48.60
59417;BME280;45222;52.458;20.914;2023-06-10T08:09:41;100910.02;;;21.37;47.79
59417;BME280;45222;52.458;20.914;2023-06-10T08:13:28;100902.15;;;21.60;47.33
59417;BME280;45222;52.458;20.914;2023-06-10T08:17:14;100902.05;;;21.76;46.86
59417;BME280;45222;52.458;20.914;2023-06-10T08:21:00;100896.55;;;22.03;45.65
59417;BME280;45222;52.458;20.914;2023-06-10T08:24:47;100895.54;;;22.35;44.82
59417;BME280;45222;52.458;20.914;2023-06-10T08:28:33;100894.50;;;22.67;44.18
59417;BME280;45222;52.458;20.914;2023-06-10T08:32:20;100897.40;;;22.91;43.08
59417;BME280;45222;52.458;20.914;2023-06-10T08:36:06;100900.11;;;23.11;41.95
59417;BME280;45222;52.458;20.914;2023-06-10T08:39:52;100899.60;;;23.15;41.07
59417;BME280;45222;52.458;20.914;2023-06-10T08:43:39;100893.29;;;23.18;41.42
59417;BME280;45222;52.458;20.914;2023-06-10T08:47:28;100892.25;;;23.43;41.28
59417;BME280;45222;52.458;20.914;2023-06-10T08:51:16;100896.92;;;23.63;40.62
59417;BME280;45222;52.458;20.914;2023-06-10T08:55:04;100891.97;;;23.86;40.32
59417;BME280;45222;52.458;20.914;2023-06-10T08:58:50;100890.46;;;24.10;40.08
59417;BME280;45222;52.458;20.914;2023-06-10T09:02:37;100893.16;;;24.28;39.69
59417;BME280;45222;52.458;20.914;2023-06-10T09:06:24;100888.60;;;24.47;39.48
59417;BME280;45222;52.458;20.914;2023-06-10T09:10:14;100892.44;;;24.65;38.17
59417;BME280;45222;52.458;20.914;2023-06-10T09:14:01;100891.92;;;24.76;38.06
59417;BME280;45222;52.458;20.914;2023-06-10T09:17:47;100886.97;;;24.89;38.04
59417;BME280;45222;52.458;20.914;2023-06-10T09:21:34;100889.65;;;25.11;37.07
59417;BME280;45222;52.458;20.914;2023-06-10T09:25:20;100888.81;;;25.23;36.65
59417;BME280;45222;52.458;20.914;2023-06-10T09:29:20;100890.06;;;25.34;36.35
59417;BME280;45222;52.458;20.914;2023-06-10T09:33:09;100894.24;;;25.34;35.55
59417;BME280;45222;52.458;20.914;2023-06-10T09:36:56;100898.90;;;25.26;34.44
59417;BME280;45222;52.458;20.914;2023-06-10T09:40:49;100900.09;;;25.07;33.73
59417;BME280;45222;52.458;20.914;2023-06-10T09:44:36;100897.67;;;25.13;34.39
59417;BME280;45222;52.458;20.914;2023-06-10T09:48:24;100889.94;;;25.46;34.59
59417;BME280;45222;52.458;20.914;2023-06-10T09:52:11;100889.48;;;25.79;33.63
59417;BME280;45222;52.458;20.914;2023-06-10T09:55:57;100885.73;;;26.04;32.96
59417;BME280;45222;52.458;20.914;2023-06-10T09:59:43;100884.81;;;26.30;32.42
59417;BME280;45222;52.458;20.914;2023-06-10T10:03:30;100893.92;;;26.34;31.43
59417;BME280;45222;52.458;20.914;2023-06-10T10:07:16;100893.47;;;26.09;30.63
59417;BME280;45222;52.458;20.914;2023-06-10T10:11:02;100885.17;;;26.18;31.09
59417;BME280;45222;52.458;20.914;2023-06-10T10:14:49;100882.11;;;26.55;30.08
59417;BME280;45222;52.458;20.914;2023-06-10T10:18:36;100875.82;;;26.73;29.70
59417;BME280;45222;52.458;20.914;2023-06-10T10:22:25;100873.86;;;26.66;28.48
59417;BME280;45222;52.458;20.914;2023-06-10T10:26:11;100878.10;;;26.49;28.25
59417;BME280;45222;52.458;20.914;2023-06-10T10:29:58;100877.53;;;26.18;28.84
59417;BME280;45222;52.458;20.914;2023-06-10T10:33:48;100882.79;;;26.25;28.93
59417;BME280;45222;52.458;20.914;2023-06-10T10:37:38;100881.29;;;26.51;28.43
59417;BME280;45222;52.458;20.914;2023-06-10T10:41:24;100877.95;;;26.60;27.14
59417;BME280;45222;52.458;20.914;2023-06-10T10:45:12;100874.64;;;26.69;28.45
59417;BME280;45222;52.458;20.914;2023-06-10T10:48:58;100881.67;;;26.58;28.43
59417;BME280;45222;52.458;20.914;2023-06-10T10:52:50;100875.89;;;26.39;28.19
59417;BME280;45222;52.458;20.914;2023-06-10T10:56:37;100878.64;;;26.25;28.51
59417;BME280;45222;52.458;20.914;2023-06-10T11:00:28;100872.35;;;26.18;28.37
59417;BME280;45222;52.458;20.914;2023-06-10T11:04:15;100869.00;;;26.42;29.61
59417;BME280;45222;52.458;20.914;2023-06-10T11:08:03;100864.05;;;26.77;30.33
59417;BME280;45222;52.458;20.914;2023-06-10T11:11:50;100864.11;;;26.98;29.60
59417;BME280;45222;52.458;20.914;2023-06-10T11:15:42;100861.98;;;26.88;29.43
59417;BME280;45222;52.458;20.914;2023-06-10T11:19:35;100859.30;;;26.88;30.56
59417;BME280;45222;52.458;20.914;2023-06-10T11:23:26;100861.27;;;27.19;30.92
59417;BME280;45222;52.458;20.914;2023-06-10T11:27:15;100862.73;;;27.55;29.45
59417;BME280;45222;52.458;20.914;2023-06-10T11:31:02;100860.60;;;27.68;30.27
59417;BME280;45222;52.458;20.914;2023-06-10T11:34:52;100861.50;;;27.68;29.71
59417;BME280;45222;52.458;20.914;2023-06-10T11:38:39;100857.18;;;27.46;29.53
59417;BME280;45222;52.458;20.914;2023-06-10T11:42:26;100851.87;;;27.30;29.76
59417;BME280;45222;52.458;20.914;2023-06-10T11:46:12;100852.27;;;27.49;30.57
59417;BME280;45222;52.458;20.914;2023-06-10T11:49:59;100852.16;;;27.83;30.72
59417;BME280;45222;52.458;20.914;2023-06-10T11:53:45;100841.85;;;28.18;30.22
59417;BME280;45222;52.458;20.914;2023-06-10T11:57:34;100844.65;;;28.20;30.27
59417;BME280;45222;52.458;20.914;2023-06-10T12:01:21;100842.59;;;28.09;30.20
59417;BME280;45222;52.458;20.914;2023-06-10T12:05:11;100841.75;;;28.04;30.47
59417;BME280;45222;52.458;20.914;2023-06-10T12:08:58;100841.55;;;27.89;30.49
59417;BME280;45222;52.458;20.914;2023-06-10T12:12:45;100836.85;;;27.42;31.76
59417;BME280;45222;52.458;20.914;2023-06-10T12:16:31;100838.14;;;27.46;32.32
59417;BME280;45222;52.458;20.914;2023-06-10T12:20:25;100838.23;;;27.82;32.39
59417;BME280;45222;52.458;20.914;2023-06-10T12:24:12;100841.22;;;28.08;31.82
59417;BME280;45222;52.458;20.914;2023-06-10T12:27:59;100838.09;;;28.24;30.97
59417;BME280;45222;52.458;20.914;2023-06-10T12:31:55;100835.89;;;27.88;31.34
59417;BME280;45222;52.458;20.914;2023-06-10T12:35:48;100838.30;;;27.57;31.94
59417;BME280;45222;52.458;20.914;2023-06-10T12:39:35;100825.05;;;27.85;31.08
59417;BME280;45222;52.458;20.914;2023-06-10T12:43:21;100824.26;;;28.27;31.44
59417;BME280;45222;52.458;20.914;2023-06-10T12:47:09;100824.27;;;28.95;31.29
59417;BME280;45222;52.458;20.914;2023-06-10T12:50:57;100825.27;;;29.25;30.23
59417;BME280;45222;52.458;20.914;2023-06-10T12:54:44;100824.69;;;28.94;29.88
59417;BME280;45222;52.458;20.914;2023-06-10T12:58:31;100816.36;;;29.17;29.83
59417;BME280;45222;52.458;20.914;2023-06-10T13:02:17;100813.08;;;29.41;28.78
59417;BME280;45222;52.458;20.914;2023-06-10T13:06:04;100818.67;;;29.28;28.66
59417;BME280;45222;52.458;20.914;2023-06-10T13:09:51;100818.36;;;28.91;28.35
59417;BME280;45222;52.458;20.914;2023-06-10T13:13:37;100810.92;;;28.20;29.22
59417;BME280;45222;52.458;20.914;2023-06-10T13:17:24;100805.92;;;28.21;28.90
59417;BME280;45222;52.458;20.914;2023-06-10T13:21:10;100802.02;;;28.50;28.88
59417;BME280;45222;52.458;20.914;2023-06-10T13:24:56;100801.22;;;28.91;28.41
59417;BME280;45222;52.458;20.914;2023-06-10T13:28:42;100799.66;;;28.81;27.69
59417;BME280;45222;52.458;20.914;2023-06-10T13:32:28;100800.15;;;28.56;28.40
59417;BME280;45222;52.458;20.914;2023-06-10T13:36:15;100800.27;;;28.85;28.81
59417;BME280;45222;52.458;20.914;2023-06-10T13:40:01;100800.94;;;28.84;27.96
59417;BME280;45222;52.458;20.914;2023-06-10T13:43:47;100795.80;;;28.65;27.62
59417;BME280;45222;52.458;20.914;2023-06-10T13:47:34;100793.14;;;28.51;26.95
59417;BME280;45222;52.458;20.914;2023-06-10T13:51:20;100796.23;;;28.45;28.15
59417;BME280;45222;52.458;20.914;2023-06-10T13:55:06;100791.05;;;28.91;29.41
59417;BME280;45222;52.458;20.914;2023-06-10T13:58:53;100789.16;;;29.42;27.75
59417;BME280;45222;52.458;20.914;2023-06-10T14:02:39;100788.23;;;29.72;28.64
59417;BME280;45222;52.458;20.914;2023-06-10T14:06:26;100791.64;;;30.16;27.81
59417;BME280;45222;52.458;20.914;2023-06-10T14:10:13;100785.27;;;30.33;27.12
59417;BME280;45222;52.458;20.914;2023-06-10T14:13:59;100787.02;;;30.48;26.94
59417;BME280;45222;52.458;20.914;2023-06-10T14:17:45;100791.89;;;30.27;27.19
59417;BME280;45222;52.458;20.914;2023-06-10T14:21:32;100786.95;;;29.81;27.24
59417;BME280;45222;52.458;20.914;2023-06-10T14:25:18;100787.30;;;29.59;28.90
59417;BME280;45222;52.458;20.914;2023-06-10T14:29:04;100788.90;;;29.68;28.41
59417;BME280;45222;52.458;20.914;2023-06-10T14:32:51;100792.67;;;29.48;28.89
59417;BME280;45222;52.458;20.914;2023-06-10T14:36:38;100792.13;;;28.98;29.48
59417;BME280;45222;52.458;20.914;2023-06-10T14:40:24;100792.49;;;28.17;30.31
59417;BME280;45222;52.458;20.914;2023-06-10T14:44:13;100784.75;;;27.63;31.57
59417;BME280;45222;52.458;20.914;2023-06-10T14:47:59;100780.02;;;27.71;32.18
59417;BME280;45222;52.458;20.914;2023-06-10T14:51:46;100780.76;;;28.00;31.94
59417;BME280;45222;52.458;20.914;2023-06-10T14:55:34;100779.05;;;28.18;31.08
59417;BME280;45222;52.458;20.914;2023-06-10T14:59:20;100781.13;;;28.17;31.14
59417;BME280;45222;52.458;20.914;2023-06-10T15:03:06;100778.08;;;28.02;30.86
59417;BME280;45222;52.458;20.914;2023-06-10T15:06:53;100783.98;;;27.81;31.13
59417;BME280;45222;52.458;20.914;2023-06-10T15:10:39;100787.77;;;27.50;31.43
59417;BME280;45222;52.458;20.914;2023-06-10T15:14:25;100781.84;;;27.33;31.99
59417;BME280;45222;52.458;20.914;2023-06-10T15:18:11;100782.81;;;27.17;32.63
59417;BME280;45222;52.458;20.914;2023-06-10T15:21:58;100783.73;;;27.32;33.04
59417;BME280;45222;52.458;20.914;2023-06-10T15:25:44;100788.75;;;27.36;32.47
59417;BME280;45222;52.458;20.914;2023-06-10T15:29:31;100792.52;;;27.22;32.35
59417;BME280;45222;52.458;20.914;2023-06-10T15:33:17;100796.60;;;26.87;32.85
59417;BME280;45222;52.458;20.914;2023-06-10T15:37:04;100794.64;;;26.63;32.96
59417;BME280;45222;52.458;20.914;2023-06-10T15:40:50;100801.31;;;26.55;33.80
59417;BME280;45222;52.458;20.914;2023-06-10T15:44:38;100801.82;;;26.61;33.69
59417;BME280;45222;52.458;20.914;2023-06-10T15:48:24;100809.42;;;26.66;33.95
59417;BME280;45222;52.458;20.914;2023-06-10T15:52:11;100810.20;;;26.63;34.12
59417;BME280;45222;52.458;20.914;2023-06-10T15:55:57;100814.19;;;26.41;34.38
59417;BME280;45222;52.458;20.914;2023-06-10T15:59:43;100813.27;;;26.19;34.80
59417;BME280;45222;52.458;20.914;2023-06-10T16:03:30;100813.21;;;26.06;35.27
59417;BME280;45222;52.458;20.914;2023-06-10T16:07:16;100812.16;;;25.92;35.31
59417;BME280;45222;52.458;20.914;2023-06-10T16:11:02;100815.02;;;25.78;35.49
59417;BME280;45222;52.458;20.914;2023-06-10T16:14:49;100819.21;;;25.54;35.45
59417;BME280;45222;52.458;20.914;2023-06-10T16:18:36;100818.63;;;25.31;35.49
59417;BME280;45222;52.458;20.914;2023-06-10T16:22:22;100823.73;;;25.17;35.69
59417;BME280;45222;52.458;20.914;2023-06-10T16:26:13;100827.73;;;25.03;35.94
59417;BME280;45222;52.458;20.914;2023-06-10T16:30:03;100833.26;;;24.90;35.83
59417;BME280;45222;52.458;20.914;2023-06-10T16:33:50;100834.60;;;24.78;36.07
59417;BME280;45222;52.458;20.914;2023-06-10T16:37:36;100844.89;;;24.73;36.85
59417;BME280;45222;52.458;20.914;2023-06-10T16:41:22;100841.38;;;24.67;37.04
59417;BME280;45222;52.458;20.914;2023-06-10T16:45:09;100839.32;;;24.58;37.18
59417;BME280;45222;52.458;20.914;2023-06-10T16:48:56;100845.18;;;24.47;37.51
59417;BME280;45222;52.458;20.914;2023-06-10T16:52:42;100852.89;;;24.37;37.99
59417;BME280;45222;52.458;20.914;2023-06-10T16:56:28;100853.20;;;24.32;38.24
59417;BME280;45222;52.458;20.914;2023-06-10T17:04:15;100857.46;;;24.35;38.24
59417;BME280;45222;52.458;20.914;2023-06-10T17:08:01;100864.12;;;24.35;38.52
59417;BME280;45222;52.458;20.914;2023-06-10T17:11:49;100865.41;;;24.39;38.44
59417;BME280;45222;52.458;20.914;2023-06-10T17:15:35;100867.03;;;24.41;38.48
59417;BME280;45222;52.458;20.914;2023-06-10T17:19:22;100870.36;;;24.42;37.96
59417;BME280;45222;52.458;20.914;2023-06-10T17:23:08;100876.86;;;24.46;38.22
59417;BME280;45222;52.458;20.914;2023-06-10T17:26:54;100883.17;;;24.42;38.54
59417;BME280;45222;52.458;20.914;2023-06-10T17:30:40;100883.37;;;24.32;38.23
59417;BME280;45222;52.458;20.914;2023-06-10T17:34:26;100884.14;;;24.22;38.22
59417;BME280;45222;52.458;20.914;2023-06-10T17:38:14;100886.52;;;24.18;38.29
59417;BME280;45222;52.458;20.914;2023-06-10T17:42:01;100890.17;;;24.10;38.58
59417;BME280;45222;52.458;20.914;2023-06-10T17:45:48;100892.77;;;24.04;38.94
59417;BME280;45222;52.458;20.914;2023-06-10T17:49:35;100897.16;;;24.00;39.38
59417;BME280;45222;52.458;20.914;2023-06-10T17:53:21;100903.42;;;23.95;39.19
59417;BME280;45222;52.458;20.914;2023-06-10T17:57:07;100906.70;;;23.86;39.74
59417;BME280;45222;52.458;20.914;2023-06-10T18:00:54;100910.54;;;23.69;40.07
59417;BME280;45222;52.458;20.914;2023-06-10T18:04:40;100922.21;;;23.48;40.42
59417;BME280;45222;52.458;20.914;2023-06-10T18:08:26;100929.83;;;23.33;40.90
59417;BME280;45222;52.458;20.914;2023-06-10T18:12:13;100928.77;;;23.19;41.19
59417;BME280;45222;52.458;20.914;2023-06-10T18:15:59;100933.52;;;23.01;41.62
59417;BME280;45222;52.458;20.914;2023-06-10T18:19:46;100939.27;;;22.83;41.96
59417;BME280;45222;52.458;20.914;2023-06-10T18:23:32;100943.49;;;22.69;42.08
59417;BME280;45222;52.458;20.914;2023-06-10T18:27:19;100949.67;;;22.57;42.29
59417;BME280;45222;52.458;20.914;2023-06-10T18:31:07;100954.52;;;22.45;42.87
59417;BME280;45222;52.458;20.914;2023-06-10T18:34:54;100960.03;;;22.29;43.13
59417;BME280;45222;52.458;20.914;2023-06-10T18:38:41;100961.63;;;22.15;43.49
59417;BME280;45222;52.458;20.914;2023-06-10T18:42:27;100968.27;;;22.02;43.51
59417;BME280;45222;52.458;20.914;2023-06-10T18:46:13;100970.30;;;21.89;43.90
59417;BME280;45222;52.458;20.914;2023-06-10T18:50:00;100978.88;;;21.73;44.45
59417;BME280;45222;52.458;20.914;2023-06-10T18:53:46;100986.45;;;21.56;44.72
59417;BME280;45222;52.458;20.914;2023-06-10T18:57:33;100990.05;;;21.41;45.05
59417;BME280;45222;52.458;20.914;2023-06-10T19:01:19;100995.84;;;21.28;45.45
59417;BME280;45222;52.458;20.914;2023-06-10T19:05:07;101004.30;;;21.15;45.83
59417;BME280;45222;52.458;20.914;2023-06-10T19:08:57;101010.31;;;21.04;45.71
59417;BME280;45222;52.458;20.914;2023-06-10T19:12:45;101012.70;;;20.95;46.31
59417;BME280;45222;52.458;20.914;2023-06-10T19:16:31;101019.94;;;20.88;45.90
59417;BME280;45222;52.458;20.914;2023-06-10T19:20:17;101023.34;;;20.81;46.40
59417;BME280;45222;52.458;20.914;2023-06-10T19:24:04;101026.31;;;20.76;46.37
59417;BME280;45222;52.458;20.914;2023-06-10T19:27:50;101025.73;;;20.67;46.71
59417;BME280;45222;52.458;20.914;2023-06-10T19:31:37;101030.64;;;20.60;46.74
59417;BME280;45222;52.458;20.914;2023-06-10T19:35:26;101035.30;;;20.52;47.07